Time;durP1;ratioP1;P1;durP2;ratioP2;P2;SDS_P1;SDS_P2;PMS_P1;PMS_P2;Temp;Humidity;BMP_temperature;BMP_pressure;BME280_temperature;BME280_humidity;BME280_pressure;Samples;Min_cycle;Max_cycle;Signal;HPM_P1;HPM_P2
2022/04/27 00:00:36;;;;;;;16.88;8.00;;;;;;;10.19;56.93;101904.44;4794313;29;122740;-86
2022/04/27 00:03:04;;;;;;;16.35;7.75;;;;;;;10.16;57.17;101900.53;4795348;29;120806;-87
2022/04/27 00:05:30;;;;;;;16.65;8.00;;;;;;;10.12;56.77;101895.09;4797745;29;120559;-87
2022/04/27 00:07:55;;;;;;;15.50;8.00;;;;;;;10.02;57.08;101895.31;4796827;29;120077;-87
2022/04/27 00:10:21;;;;;;;15.07;7.80;;;;;;;10.07;57.19;101903.03;4796459;29;119794;-87
2022/04/27 00:12:47;;;;;;;19.95;7.65;;;;;;;10.00;57.59;101895.72;4800819;29;119769;-86
2022/04/27 00:15:14;;;;;;;15.88;8.38;;;;;;;9.99;57.19;101896.13;4795487;29;119800;-87
2022/04/27 00:17:40;;;;;;;14.70;7.80;;;;;;;10.03;57.48;101902.34;4780142;29;119474;-88
2022/04/27 00:20:07;;;;;;;25.25;7.60;;;;;;;9.92;57.33;101885.25;4777435;29;120205;-87
2022/04/27 00:22:34;;;;;;;16.85;8.15;;;;;;;9.90;57.00;101887.66;4794236;29;123445;-87
2022/04/27 00:25:04;;;;;;;14.40;8.23;;;;;;;9.84;57.41;101888.13;4765124;29;120980;-87
2022/04/27 00:27:30;;;;;;;16.00;8.23;;;;;;;9.90;57.50;101898.63;4780909;29;120241;-86
2022/04/27 00:29:58;;;;;;;12.88;8.05;;;;;;;9.92;57.22;101907.19;4788532;29;122579;-87
2022/04/27 00:32:24;;;;;;;17.33;7.97;;;;;;;9.79;57.39;101894.09;4801039;29;120026;-87
2022/04/27 00:34:50;;;;;;;13.52;7.90;;;;;;;9.76;56.64;101889.44;4786946;29;122749;-87
2022/04/27 00:37:18;;;;;;;19.02;8.85;;;;;;;9.75;57.25;101898.06;4768910;29;119409;-87
2022/04/27 00:39:44;;;;;;;14.88;8.65;;;;;;;9.68;57.41;101893.47;4795234;29;122573;-88
2022/04/27 00:42:18;;;;;;;18.35;9.13;;;;;;;9.80;57.63;101912.06;4800648;29;123008;-87
2022/04/27 00:44:45;;;;;;;16.15;8.63;;;;;;;9.78;57.27;101899.97;4796370;29;120788;-88
2022/04/27 00:47:15;;;;;;;15.30;8.98;;;;;;;9.76;57.98;101911.34;4799704;29;119828;-88
2022/04/27 00:49:45;;;;;;;17.38;9.52;;;;;;;9.62;57.73;101886.91;4795266;29;122814;-89
2022/04/27 00:52:13;;;;;;;17.20;9.75;;;;;;;9.72;57.66;101907.13;4800372;29;120674;-88
2022/04/27 00:54:40;;;;;;;15.80;9.70;;;;;;;9.68;57.56;101903.63;4814321;29;119792;-89
2022/04/27 00:57:07;;;;;;;16.10;10.20;;;;;;;9.69;58.14;101905.97;4796752;29;120895;-87
2022/04/27 00:59:32;;;;;;;17.38;9.70;;;;;;;9.70;57.86;101906.75;4812804;29;119873;-88
2022/04/27 01:01:58;;;;;;;19.67;9.70;;;;;;;9.62;57.94;101897.09;4781332;29;122673;-87
2022/04/27 01:04:24;;;;;;;15.27;9.88;;;;;;;9.64;57.98;101898.22;4780952;29;119659;-88
2022/04/27 01:06:50;;;;;;;16.90;10.20;;;;;;;9.67;57.06;101902.09;4796482;29;120996;-86
2022/04/27 01:09:18;;;;;;;19.52;9.90;;;;;;;9.62;57.53;101900.59;4796497;29;121782;-88
2022/04/27 01:11:44;;;;;;;16.75;9.70;;;;;;;9.49;57.79;101883.97;4781804;29;120697;-87
2022/04/27 01:14:10;;;;;;;18.05;10.38;;;;;;;9.54;57.75;101899.94;4797078;29;121511;-89
2022/04/27 01:16:36;;;;;;;14.48;10.15;;;;;;;9.50;57.80;101888.25;4799984;29;122546;-88
2022/04/27 01:19:02;;;;;;;16.15;10.45;;;;;;;9.54;58.00;101893.69;4781896;29;122295;-87
2022/04/27 01:21:27;;;;;;;14.15;10.65;;;;;;;9.54;57.86;101916.38;4780592;29;123071;-87
2022/04/27 01:24:04;;;;;;;18.00;10.57;;;;;;;9.47;57.58;101910.22;4778629;29;120038;-87
2022/04/27 01:26:29;;;;;;;18.42;11.05;;;;;;;9.34;58.20;101901.00;4782418;29;122205;-88
2022/04/27 01:28:55;;;;;;;17.05;9.88;;;;;;;9.40;58.02;101921.25;4796984;29;120200;-87
2022/04/27 01:31:20;;;;;;;17.80;10.38;;;;;;;9.36;57.62;101909.59;4765131;29;120232;-87
2022/04/27 01:33:47;;;;;;;18.08;10.25;;;;;;;9.29;57.68;101904.22;4784856;29;122523;-88
2022/04/27 01:36:13;;;;;;;16.33;10.35;;;;;;;9.35;57.67;101918.97;4767934;29;123481;-87
2022/04/27 01:38:40;;;;;;;19.55;10.60;;;;;;;9.29;58.14;101917.91;4800536;29;121341;-88
2022/04/27 01:41:06;;;;;;;17.15;10.27;;;;;;;9.37;57.23;101931.06;4794923;29;123584;-88
2022/04/27 01:43:34;;;;;;;18.58;10.82;;;;;;;9.26;57.86;101913.25;4797081;29;120871;-87
2022/04/27 01:46:00;;;;;;;17.50;10.65;;;;;;;9.29;57.89;101928.84;4780445;29;120555;-88
2022/04/27 01:48:29;;;;;;;18.92;11.02;;;;;;;9.24;58.52;101924.63;4798110;29;122612;-88
2022/04/27 01:50:55;;;;;;;14.73;10.68;;;;;;;9.18;58.10;101918.78;4793933;29;119808;-87
2022/04/27 01:56:06;;;;;;;17.85;10.45;;;;;;;9.30;58.45;101939.38;4796030;29;122938;-87
2022/04/27 01:58:38;;;;;;;16.73;11.15;;;;;;;9.14;58.09;101915.34;4787586;29;120640;-88
2022/04/27 02:01:03;;;;;;;17.17;11.57;;;;;;;9.19;58.33;101917.59;4804540;29;122181;-88
2022/04/27 02:03:29;;;;;;;15.93;11.02;;;;;;;9.28;59.00;101921.81;4782509;29;119512;-88
2022/04/27 02:05:56;;;;;;;17.63;10.82;;;;;;;9.30;58.56;101933.13;4780809;29;121761;-87
2022/04/27 02:08:26;;;;;;;20.70;11.43;;;;;;;9.27;58.62;101928.50;4780994;29;119873;-87
2022/04/27 02:10:52;;;;;;;19.33;11.90;;;;;;;9.26;58.18;101921.47;4811716;29;119705;-87
2022/04/27 02:13:21;;;;;;;17.42;11.65;;;;;;;9.30;58.36;101935.88;4797343;29;122452;-87
2022/04/27 02:15:47;;;;;;;20.77;12.43;;;;;;;9.27;58.21;101933.97;4767015;29;122501;-88
2022/04/27 02:18:35;;;;;;;17.83;12.00;;;;;;;9.15;58.21;101916.88;4767844;29;119776;-88
2022/04/27 02:21:02;;;;;;;21.60;12.75;;;;;;;9.26;57.99;101940.63;4785684;29;121945;-87
2022/04/27 02:23:28;;;;;;;19.58;12.27;;;;;;;9.12;58.02;101925.91;4781806;29;119646;-87
2022/04/27 02:26:00;;;;;;;19.23;12.90;;;;;;;9.09;58.41;101921.25;4783281;29;119929;-88
2022/04/27 02:28:26;;;;;;;19.45;12.95;;;;;;;9.15;58.60;101927.06;4800013;29;122935;-86
2022/04/27 02:30:51;;;;;;;25.00;12.75;;;;;;;9.14;58.79;101934.50;4780921;29;119872;-87
2022/04/27 02:33:17;;;;;;;19.88;12.98;;;;;;;9.12;58.30;101945.06;4796902;29;122097;-88
2022/04/27 02:35:46;;;;;;;20.33;13.23;;;;;;;9.15;58.35;101938.78;4787209;29;123143;-88
2022/04/27 02:38:12;;;;;;;20.13;12.88;;;;;;;9.06;58.13;101929.53;4829400;29;119380;-87
2022/04/27 02:40:40;;;;;;;19.08;12.63;;;;;;;8.99;58.45;101926.84;4786338;29;121663;-87
2022/04/27 02:43:09;;;;;;;21.70;12.30;;;;;;;9.10;58.05;101944.72;4773314;29;124322;-87
2022/04/27 02:45:35;;;;;;;21.67;12.73;;;;;;;9.08;58.24;101943.56;4763361;29;121834;-87
2022/04/27 02:48:01;;;;;;;19.88;13.13;;;;;;;9.09;58.19;101956.06;4760843;29;123107;-87
2022/04/27 02:53:10;;;;;;;;;;;;;;;9.03;57.95;101950.28;4780017;29;122837;-87
2022/04/27 02:55:37;;;;;;;22.02;13.32;;;;;;;8.95;58.17;101945.28;4781181;29;122990;-87
2022/04/27 02:58:03;;;;;;;23.58;13.65;;;;;;;8.95;58.53;101940.56;4780965;29;120400;-88
2022/04/27 03:00:30;;;;;;;18.15;13.80;;;;;;;8.98;58.29;101955.41;4766063;29;122086;-87
2022/04/27 03:02:58;;;;;;;21.52;13.48;;;;;;;8.97;58.80;101951.88;4780719;29;121345;-87
2022/04/27 03:05:26;;;;;;;21.50;13.05;;;;;;;8.82;57.81;101931.34;4817053;29;119736;-88
2022/04/27 03:07:52;;;;;;;18.77;13.25;;;;;;;8.85;58.39;101941.47;4780913;29;123310;-88
2022/04/27 03:10:20;;;;;;;23.13;13.23;;;;;;;8.80;57.89;101934.50;4781294;29;119578;-88
2022/04/27 03:12:46;;;;;;;21.48;13.27;;;;;;;8.74;58.19;101929.84;4796100;29;119599;-87
2022/04/27 03:15:12;;;;;;;22.58;13.85;;;;;;;8.73;58.59;101933.78;4780410;29;123191;-88
2022/04/27 03:17:37;;;;;;;22.38;13.80;;;;;;;8.68;58.02;101926.81;4783751;29;119827;-87
2022/04/27 03:20:04;;;;;;;25.70;14.63;;;;;;;8.75;58.50;101953.31;4782623;29;122384;-87
2022/04/27 03:22:30;;;;;;;19.45;13.82;;;;;;;8.66;58.29;101945.59;4780365;29;123159;-87
2022/04/27 03:24:56;;;;;;;16.23;13.55;;;;;;;8.60;58.96;101939.78;4780408;29;119952;-87
2022/04/27 03:27:28;;;;;;;21.52;14.38;;;;;;;8.60;58.50;101942.50;4814971;29;119576;-88
2022/04/27 03:29:55;;;;;;;19.95;13.32;;;;;;;8.48;58.61;101934.81;4781182;29;119726;-87
2022/04/27 03:32:22;;;;;;;23.65;14.80;;;;;;;8.49;58.30;101944.56;4780313;29;122151;-88
2022/04/27 03:34:53;;;;;;;22.73;14.50;;;;;;;8.48;58.87;101940.28;4794581;29;124096;-86
2022/04/27 03:37:22;;;;;;;21.70;14.38;;;;;;;8.48;58.81;101948.47;4779432;29;120170;-88
2022/04/27 03:39:48;;;;;;;18.20;12.98;;;;;;;8.45;58.13;101954.75;4784163;29;119744;-88
2022/04/27 03:42:18;;;;;;;17.52;13.50;;;;;;;8.37;57.15;101953.28;4784976;29;120377;-88
2022/04/27 03:44:47;;;;;;;21.50;13.95;;;;;;;8.39;57.26;101969.28;4770604;29;119469;-88
2022/04/27 03:47:12;;;;;;;21.83;13.98;;;;;;;8.29;57.46;101966.22;4800153;29;121622;-87
2022/04/27 03:49:38;;;;;;;20.15;14.07;;;;;;;8.13;57.46;101949.53;4802546;29;120047;-88
2022/04/27 03:52:08;;;;;;;20.50;14.10;;;;;;;8.18;57.08;101970.19;4798792;29;121690;-87
2022/04/27 03:54:34;;;;;;;24.75;14.55;;;;;;;8.16;57.35;101972.56;4783336;29;122681;-88
2022/04/27 03:57:00;;;;;;;20.75;13.52;;;;;;;8.14;57.03;101981.16;4798886;29;119790;-87
2022/04/27 03:59:26;;;;;;;19.60;14.48;;;;;;;8.10;56.89;101983.16;4772518;29;121469;-88
2022/04/27 04:01:52;;;;;;;20.70;14.63;;;;;;;7.90;57.57;101960.25;4776860;29;122627;-88
2022/04/27 04:04:17;;;;;;;25.05;16.27;;;;;;;8.03;57.51;101980.44;4783509;29;120058;-87
2022/04/27 04:06:43;;;;;;;23.27;14.90;;;;;;;7.84;57.79;101959.91;4784212;29;122380;-88
2022/04/27 04:09:09;;;;;;;26.02;18.25;;;;;;;7.99;58.13;101983.19;4814272;29;120221;-88
2022/04/27 04:11:36;;;;;;;24.92;15.00;;;;;;;7.96;57.70;101989.47;4787268;29;119488;-88
2022/04/27 04:14:12;;;;;;;23.58;15.20;;;;;;;7.96;57.94;101994.16;4796798;29;120643;-88
2022/04/27 04:16:50;;;;;;;21.35;15.73;;;;;;;7.97;58.10;101991.03;4791068;29;119660;-88
2022/04/27 04:19:29;;;;;;;23.20;15.48;;;;;;;7.85;58.12;101972.38;4808936;29;120852;-87
2022/04/27 04:21:57;;;;;;;20.85;15.02;;;;;;;8.00;58.46;101986.72;4798788;29;122645;-87
2022/04/27 04:30:21;;;;;;;20.15;15.02;;;;;;;8.12;58.64;101999.13;4799438;29;120234;-88
2022/04/27 04:32:58;;;;;;;22.00;14.63;;;;;;;8.12;58.09;101988.97;4788093;29;119811;-86
2022/04/27 04:35:30;;;;;;;20.40;14.43;;;;;;;8.17;57.54;102001.44;4768910;29;123031;-88
2022/04/27 04:37:56;;;;;;;23.13;14.82;;;;;;;8.22;57.74;102014.66;4804380;29;119556;-88
2022/04/27 04:40:24;;;;;;;23.52;14.43;;;;;;;8.17;57.66;102006.91;4788518;29;122031;-88
2022/04/27 04:42:49;;;;;;;25.67;14.93;;;;;;;8.24;57.36;102015.03;4772545;29;122786;-87
2022/04/27 04:45:15;;;;;;;21.70;14.45;;;;;;;8.21;57.81;102002.97;4794903;29;119613;-88
2022/04/27 04:47:55;;;;;;;23.45;15.02;;;;;;;8.35;57.39;102024.00;4796897;29;122918;-87
2022/04/27 04:50:39;;;;;;;25.02;15.10;;;;;;;8.28;57.69;102019.34;4798376;29;120899;-89
2022/04/27 04:53:18;;;;;;;26.77;15.88;;;;;;;8.30;58.23;102013.47;4797719;29;119739;-88
2022/04/27 04:56:13;;;;;;;27.02;15.43;;;;;;;8.40;58.44;102037.22;4789101;29;121936;-89
2022/04/27 04:58:44;;;;;;;23.50;15.80;;;;;;;8.47;58.55;102039.13;4791216;29;119517;-88
2022/04/27 05:01:37;;;;;;;23.08;14.95;;;;;;;8.53;58.92;102043.78;4798323;29;119720;-89
2022/04/27 05:04:15;;;;;;;22.08;15.07;;;;;;;8.69;59.42;102056.16;4780316;29;123624;-89
2022/04/27 05:07:04;;;;;;;24.30;14.35;;;;;;;8.67;59.22;102044.84;4782449;29;119416;-88
2022/04/27 05:09:50;;;;;;;26.02;15.05;;;;;;;8.61;60.24;102020.66;4784597;29;122068;-88
2022/04/27 05:12:23;;;;;;;23.60;15.20;;;;;;;9.01;59.95;102053.16;4783264;29;123188;-88
2022/04/27 05:15:12;;;;;;;23.98;14.73;;;;;;;9.12;59.77;102056.53;4781682;29;120203;-88
2022/04/27 05:17:56;;;;;;;22.13;13.80;;;;;;;9.28;60.20;102062.25;4799940;29;122842;-88
2022/04/27 05:20:42;;;;;;;20.88;12.65;;;;;;;9.36;60.29;102057.47;4795611;29;120499;-87
2022/04/27 05:23:24;;;;;;;25.48;13.13;;;;;;;9.47;60.14;102060.88;4807992;29;120272;-88
2022/04/27 05:26:03;;;;;;;23.13;11.60;;;;;;;9.60;59.87;102069.31;4785799;29;119902;-88
2022/04/27 05:31:57;;;;;;;19.33;11.48;;;;;;;9.83;60.11;102069.41;4779199;29;122385;-87
2022/04/27 05:34:47;;;;;;;17.05;10.65;;;;;;;9.92;59.91;102072.41;4775794;29;123540;-88
2022/04/27 05:37:33;;;;;;;21.55;10.73;;;;;;;9.95;59.63;102066.16;4799709;29;119371;-87
2022/04/27 05:40:30;;;;;;;24.23;10.35;;;;;;;10.09;59.26;102082.38;4789943;29;122235;-88
2022/04/27 05:43:06;;;;;;;18.50;10.48;;;;;;;10.17;58.94;102083.06;4798630;29;119811;-88
2022/04/27 05:45:58;;;;;;;24.90;10.70;;;;;;;10.28;59.82;102088.44;4811026;29;119296;-88
2022/04/27 05:48:50;;;;;;;20.90;11.00;;;;;;;10.35;59.57;102089.09;4817099;29;122815;-88
2022/04/27 05:51:38;;;;;;;19.27;10.70;;;;;;;10.42;59.50;102094.50;4800358;29;119356;-87
2022/04/27 05:54:21;;;;;;;20.63;10.55;;;;;;;10.55;58.91;102102.91;4769111;29;121653;-87
2022/04/27 05:57:05;;;;;;;23.33;10.73;;;;;;;10.60;59.43;102096.16;4783642;29;122579;-87
2022/04/27 05:59:49;;;;;;;20.40;10.15;;;;;;;10.77;59.33;102103.34;4774557;29;120201;-87
2022/04/27 06:02:38;;;;;;;22.15;10.63;;;;;;;10.86;58.44;102100.06;4807632;29;122743;-87
2022/04/27 06:05:08;;;;;;;24.70;11.98;;;;;;;10.80;58.66;102085.28;4814440;29;123376;-87
2022/04/27 06:07:38;;;;;;;18.90;11.10;;;;;;;11.01;58.97;102104.91;4812602;29;119830;-87
2022/04/27 06:10:07;;;;;;;21.15;10.30;;;;;;;11.01;58.72;102096.66;4772360;29;123135;-87
2022/04/27 06:12:47;;;;;;;21.38;10.95;;;;;;;11.18;58.20;102119.53;4780439;29;120296;-86
2022/04/27 06:15:31;;;;;;;23.17;11.93;;;;;;;11.24;58.80;102114.31;4794360;29;121854;-87
2022/04/27 06:17:59;;;;;;;27.00;11.35;;;;;;;11.28;58.89;102102.06;4782604;29;123694;-87
2022/04/27 06:20:25;;;;;;;22.45;10.38;;;;;;;11.34;58.49;102105.09;4767879;29;119819;-86
2022/04/27 06:22:51;;;;;;;20.55;9.95;;;;;;;11.41;58.57;102113.22;4799003;29;119662;-87
2022/04/27 06:25:19;;;;;;;23.58;10.70;;;;;;;11.40;58.29;102089.69;4825650;29;120377;-86
2022/04/27 06:27:52;;;;;;;23.20;10.60;;;;;;;11.52;58.07;102093.78;4783960;29;120232;-87
2022/04/27 06:30:18;;;;;;;26.40;9.73;;;;;;;11.62;58.47;102101.84;4781269;29;119621;-86
2022/04/27 06:32:46;;;;;;;18.48;9.55;;;;;;;11.76;58.75;102111.75;4814940;29;120577;-86
2022/04/27 06:35:13;;;;;;;21.15;9.15;;;;;;;11.83;57.93;102103.41;4781766;29;121685;-87
2022/04/27 06:37:39;;;;;;;22.10;8.70;;;;;;;11.91;57.39;102107.56;4796138;29;122725;-87
2022/04/27 06:40:06;;;;;;;19.15;8.38;;;;;;;12.06;57.47;102123.75;4765979;29;119557;-87
2022/04/27 06:42:32;;;;;;;17.35;7.78;;;;;;;12.11;56.94;102113.03;4796570;29;119630;-87
2022/04/27 06:45:16;;;;;;;16.30;7.25;;;;;;;12.23;56.74;102123.38;4795447;29;120336;-87
2022/04/27 06:48:00;;;;;;;18.33;7.55;;;;;;;12.33;56.43;102132.59;4813827;29;119957;-86
2022/04/27 06:50:44;;;;;;;18.92;7.50;;;;;;;12.38;56.44;102129.34;4790414;29;122117;-86
2022/04/27 06:53:39;;;;;;;15.68;7.13;;;;;;;12.48;56.24;102128.31;4749575;29;120395;-87
2022/04/27 06:56:23;;;;;;;;;;;;;;;12.60;56.10;102144.16;4802075;29;120651;-86
2022/04/27 06:59:10;;;;;;;11.02;5.22;;;;;;;12.62;55.11;102129.97;4799012;29;120701;-86
2022/04/27 07:01:39;;;;;;;12.27;5.05;;;;;;;12.62;54.40;102113.44;4795392;29;120051;-86
2022/04/27 07:04:11;;;;;;;14.13;5.95;;;;;;;12.82;54.62;102140.91;4765217;29;122133;-86
2022/04/27 07:06:38;;;;;;;10.32;5.07;;;;;;;12.85;55.45;102132.56;4808527;29;120561;-86
2022/04/27 07:09:06;;;;;;;11.10;4.65;;;;;;;12.84;54.11;102120.00;4796630;29;119914;-87
2022/04/27 07:11:31;;;;;;;12.98;4.53;;;;;;;12.90;52.77;102129.28;4782255;29;121960;-87
2022/04/27 07:14:00;;;;;;;14.98;5.03;;;;;;;12.91;52.07;102125.31;4811563;29;120592;-86
2022/04/27 07:16:25;;;;;;;10.82;4.68;;;;;;;12.96;52.77;102132.28;4783725;29;119710;-86
2022/04/27 07:18:53;;;;;;;11.10;4.60;;;;;;;13.01;52.38;102133.72;4780861;29;123094;-86
2022/04/27 07:21:22;;;;;;;10.93;4.30;;;;;;;12.97;52.25;102113.78;4793653;29;120161;-86
2022/04/27 07:23:49;;;;;;;12.85;4.18;;;;;;;13.14;51.60;102140.09;4802616;29;120188;-84
2022/04/27 07:26:14;;;;;;;13.43;4.30;;;;;;;13.11;50.44;102127.19;4763964;29;123097;-86
2022/04/27 07:28:41;;;;;;;11.43;4.25;;;;;;;13.13;51.16;102130.28;4796455;29;121264;-87
2022/04/27 07:31:07;;;;;;;6.93;3.33;;;;;;;13.25;51.57;102137.88;4797686;29;120335;-86
2022/04/27 07:33:34;;;;;;;10.30;3.47;;;;;;;13.14;51.55;102120.81;4800430;29;122863;-87
2022/04/27 07:35:59;;;;;;;9.25;3.70;;;;;;;13.41;50.66;102154.38;4792190;29;119614;-86
2022/04/27 07:38:27;;;;;;;11.77;3.50;;;;;;;13.43;50.27;102143.69;4810711;29;121817;-87
2022/04/27 07:40:53;;;;;;;11.23;3.15;;;;;;;13.43;50.85;102140.94;4799799;29;119585;-86
2022/04/27 07:43:19;;;;;;;9.48;2.92;;;;;;;13.60;49.72;102154.69;4780771;29;121756;-87
2022/04/27 07:45:44;;;;;;;14.82;4.05;;;;;;;13.65;49.79;102159.66;4794681;29;120372;-86
2022/04/27 07:48:11;;;;;;;10.55;3.38;;;;;;;13.80;48.66;102153.31;4787504;29;119787;-86
2022/04/27 07:50:37;;;;;;;10.30;2.85;;;;;;;13.87;48.77;102143.28;4830421;29;120092;-87
2022/04/27 07:53:03;;;;;;;8.70;3.28;;;;;;;13.99;49.24;102139.81;4770834;29;122523;-87
2022/04/27 07:55:29;;;;;;;8.65;3.13;;;;;;;14.26;49.29;102155.97;4780698;29;120437;-86
2022/04/27 07:57:55;;;;;;;6.35;2.80;;;;;;;14.34;48.98;102149.78;4796152;29;120566;-86
2022/04/27 08:00:21;;;;;;;7.90;2.70;;;;;;;14.51;48.21;102150.47;4798833;29;119996;-86
2022/04/27 08:02:47;;;;;;;7.57;2.70;;;;;;;14.59;48.45;102157.31;4781793;29;119916;-86
2022/04/27 08:05:15;;;;;;;7.68;2.90;;;;;;;14.69;47.74;102156.22;4811614;29;119771;-86
2022/04/27 08:07:43;;;;;;;8.85;3.25;;;;;;;14.81;47.22;102156.63;4763067;29;119659;-87
2022/04/27 08:10:18;;;;;;;7.47;3.10;;;;;;;14.81;48.89;102145.59;4799649;29;123445;-88
2022/04/27 08:12:49;;;;;;;8.93;3.50;;;;;;;14.99;47.33;102165.13;4793661;29;119769;-87
2022/04/27 08:15:17;;;;;;;8.35;3.00;;;;;;;15.06;46.52;102153.81;4792764;29;120386;-87
2022/04/27 08:17:53;;;;;;;10.85;3.45;;;;;;;15.05;46.55;102138.47;4776895;29;121883;-86
2022/04/27 08:23:16;;;;;;;8.82;3.22;;;;;;;15.29;46.80;102153.44;4799490;29;119567;-87
2022/04/27 08:25:43;;;;;;;10.40;3.38;;;;;;;15.40;45.99;102160.59;4799268;29;123037;-87
2022/04/27 08:28:09;;;;;;;11.07;3.33;;;;;;;15.44;45.34;102158.47;4799231;29;119855;-87
2022/04/27 08:30:37;;;;;;;9.43;3.60;;;;;;;15.45;45.03;102162.78;4795328;29;122040;-86
2022/04/27 08:33:04;;;;;;;9.93;3.78;;;;;;;15.39;45.89;102154.31;4767595;29;122964;-87
2022/04/27 08:35:33;;;;;;;10.48;3.28;;;;;;;15.43;44.81;102148.66;4799025;29;119860;-86
2022/04/27 08:38:00;;;;;;;25.77;4.70;;;;;;;15.52;45.17;102159.78;4781088;29;120150;-87
2022/04/27 08:40:26;;;;;;;9.60;3.58;;;;;;;15.54;46.63;102163.63;4797471;29;121387;-87
2022/04/27 08:42:53;;;;;;;8.15;3.50;;;;;;;15.73;46.64;102174.88;4779668;29;120358;-86
2022/04/27 08:45:19;;;;;;;9.10;3.50;;;;;;;15.72;45.27;102171.34;4799704;29;120434;-87
2022/04/27 08:47:46;;;;;;;10.02;3.60;;;;;;;15.83;44.94;102170.94;4797913;29;120266;-88
2022/04/27 08:50:18;;;;;;;9.75;3.45;;;;;;;15.89;45.33;102174.69;4777083;29;121906;-87
2022/04/27 08:52:44;;;;;;;10.88;4.15;;;;;;;15.99;45.08;102181.81;4798166;29;120560;-88
2022/04/27 08:55:11;;;;;;;10.43;3.80;;;;;;;15.89;46.49;102153.31;4782655;29;119657;-87
2022/04/27 08:57:37;;;;;;;7.93;3.55;;;;;;;16.15;48.27;102176.06;4797642;29;121722;-87
2022/04/27 09:00:06;;;;;;;11.50;3.60;;;;;;;16.15;47.81;102162.22;4781301;29;123018;-88
2022/04/27 09:02:32;;;;;;;9.27;3.78;;;;;;;16.24;46.35;102167.81;4781206;29;120016;-88
2022/04/27 09:05:07;;;;;;;6.63;3.83;;;;;;;16.38;43.67;102188.66;4774014;29;122474;-88
2022/04/27 09:07:50;;;;;;;10.23;3.90;;;;;;;16.34;45.41;102184.50;4782743;29;119988;-87
2022/04/27 09:10:18;;;;;;;10.55;3.97;;;;;;;16.26;44.90;102184.75;4799621;29;121784;-88
2022/04/27 09:12:46;;;;;;;12.27;4.15;;;;;;;16.27;44.19;102191.81;4811496;29;119971;-88
2022/04/27 09:15:13;;;;;;;12.68;4.50;;;;;;;16.26;45.18;102190.28;4796929;29;120181;-88
2022/04/27 09:23:22;;;;;;;8.98;3.72;;;;;;;16.27;47.84;102205.66;4780269;29;119958;-88
2022/04/27 09:25:51;;;;;;;7.60;4.00;;;;;;;16.29;46.49;102199.66;4781007;29;122196;-88
2022/04/27 09:28:18;;;;;;;10.20;3.92;;;;;;;16.30;45.73;102190.13;4786292;29;122928;-88
2022/04/27 09:30:47;;;;;;;9.43;3.95;;;;;;;16.35;47.17;102186.81;4782914;29;122573;-88
2022/04/27 09:33:28;;;;;;;8.48;3.85;;;;;;;16.19;45.32;102167.63;4777601;29;123828;-88
2022/04/27 09:35:56;;;;;;;8.43;3.67;;;;;;;16.43;46.39;102196.38;4792431;29;119743;-88
2022/04/27 09:38:24;;;;;;;10.88;4.32;;;;;;;16.51;45.62;102194.09;4783945;29;122093;-87
2022/04/27 09:40:53;;;;;;;7.30;3.97;;;;;;;16.65;46.91;102196.31;4796185;29;120061;-87
2022/04/27 09:43:47;;;;;;;7.72;4.03;;;;;;;16.67;44.82;102185.56;4784425;29;119731;-87
2022/04/27 09:46:22;;;;;;;;;;;;;;;16.68;44.66;102200.19;4800036;29;122454;-88
2022/04/27 09:49:08;;;;;;;6.35;4.03;;;;;;;16.55;45.77;102178.88;4767823;29;123429;-88
2022/04/27 09:51:57;;;;;;;8.43;4.10;;;;;;;16.66;43.81;102205.41;4785766;29;119559;-88
2022/04/27 09:54:25;;;;;;;10.57;4.32;;;;;;;16.53;43.25;102191.63;4802576;29;120541;-88
2022/04/27 09:57:01;;;;;;;10.25;4.05;;;;;;;16.55;43.56;102198.25;4786452;29;119904;-87
2022/04/27 09:59:32;;;;;;;10.95;4.60;;;;;;;16.57;42.89;102220.75;4787827;29;122883;-88
2022/04/27 10:02:04;;;;;;;10.48;4.75;;;;;;;16.59;43.67;102206.44;4784831;29;123322;-88
2022/04/27 10:04:29;;;;;;;11.18;4.20;;;;;;;16.60;45.04;102201.69;4787485;29;119551;-88
2022/04/27 10:06:58;;;;;;;10.93;4.50;;;;;;;16.65;44.46;102193.53;4774649;29;122019;-88
2022/04/27 10:09:26;;;;;;;9.07;4.45;;;;;;;16.80;43.96;102207.66;4786900;29;124192;-88
2022/04/27 10:11:53;;;;;;;7.13;4.05;;;;;;;16.74;44.02;102190.06;4804633;29;119887;-87
2022/04/27 10:14:20;;;;;;;10.00;3.92;;;;;;;16.86;45.32;102214.13;4800500;29;122311;-87
2022/04/27 10:16:49;;;;;;;8.93;4.38;;;;;;;16.88;43.32;102214.44;4803883;29;119972;-87
2022/04/27 10:19:17;;;;;;;13.90;4.10;;;;;;;16.81;45.41;102209.19;4769231;29;122297;-87
2022/04/27 10:22:06;;;;;;;;;;;;;;;;;;;;;
2022/04/27 10:24:34;;;;;;;11.10;4.00;;;;;;;16.87;42.60;102221.22;4782843;29;119957;-88
2022/04/27 10:27:19;;;;;;;13.45;4.45;;;;;;;16.77;41.75;102209.31;4788076;29;122231;-86
2022/04/27 10:30:10;;;;;;;10.98;3.92;;;;;;;16.62;42.56;102215.84;4776866;29;123456;-87
2022/04/27 10:32:44;;;;;;;9.52;4.05;;;;;;;16.61;42.62;102215.09;4788128;29;119772;-87
2022/04/27 10:35:14;;;;;;;9.02;4.22;;;;;;;16.56;42.75;102213.69;4776322;29;122688;-88
2022/04/27 10:37:54;;;;;;;9.70;4.60;;;;;;;16.50;42.87;102198.09;4794434;29;123866;-88
2022/04/27 10:40:42;;;;;;;13.05;4.10;;;;;;;16.52;43.05;102201.16;4763130;29;122212;-87
2022/04/27 10:43:10;;;;;;;8.98;4.22;;;;;;;16.64;44.97;102216.16;4782720;29;124173;-87
2022/04/27 10:45:48;;;;;;;9.07;4.35;;;;;;;16.60;43.40;102196.91;4777170;29;120118;-85
2022/04/27 10:48:20;;;;;;;11.25;4.28;;;;;;;16.61;43.17;102211.53;4784821;29;119953;-85
2022/04/27 10:50:55;;;;;;;13.15;4.78;;;;;;;16.66;42.77;102208.97;4775312;29;122866;-85
2022/04/27 10:53:23;;;;;;;8.07;4.55;;;;;;;16.63;42.42;102206.31;4761853;29;120154;-85
2022/04/27 10:55:54;;;;;;;9.10;4.07;;;;;;;16.50;42.74;102198.09;4779243;29;121678;-85
2022/04/27 10:58:22;;;;;;;11.07;4.38;;;;;;;16.55;42.60;102214.09;4761955;29;122905;-86
2022/04/27 11:01:03;;;;;;;9.57;4.63;;;;;;;16.55;42.99;102198.25;4798372;29;119780;-85
2022/04/27 11:03:29;;;;;;;9.07;4.28;;;;;;;16.55;42.61;102203.78;4800157;29;122640;-85
2022/04/27 11:06:00;;;;;;;8.93;4.35;;;;;;;16.55;41.63;102212.09;4779769;29;120271;-85
2022/04/27 11:08:43;;;;;;;8.27;4.07;;;;;;;16.52;41.79;102213.03;4796744;29;122634;-85
2022/04/27 11:11:09;;;;;;;10.27;4.00;;;;;;;16.43;42.27;102215.75;4816261;29;119888;-85
2022/04/27 11:13:36;;;;;;;11.20;3.70;;;;;;;16.44;42.65;102203.44;4772132;29;120121;-86
2022/04/27 11:16:13;;;;;;;12.75;3.80;;;;;;;16.46;42.40;102205.75;4790387;29;122241;-86
2022/04/27 11:18:50;;;;;;;10.98;3.70;;;;;;;16.53;43.04;102205.47;4794317;29;123297;-87
2022/04/27 11:21:20;;;;;;;8.85;3.85;;;;;;;16.52;42.29;102196.41;4814793;29;120140;-87
2022/04/27 11:23:47;;;;;;;11.70;3.70;;;;;;;16.62;42.63;102202.00;4779883;29;122900;-85
2022/04/27 11:26:16;;;;;;;8.95;3.25;;;;;;;16.66;43.84;102195.13;4797515;29;119669;-85
2022/04/27 11:28:43;;;;;;;12.52;3.40;;;;;;;16.84;44.48;102205.50;4796106;29;122763;-86
2022/04/27 11:31:10;;;;;;;10.95;3.25;;;;;;;16.84;44.43;102191.63;4770801;29;123990;-85
2022/04/27 11:33:40;;;;;;;8.77;2.95;;;;;;;16.96;43.62;102199.06;4781189;29;121706;-85
2022/04/27 11:36:26;;;;;;;10.48;2.92;;;;;;;17.14;43.49;102214.97;4778700;29;121815;-86
2022/04/27 11:38:54;;;;;;;12.90;3.75;;;;;;;17.16;42.66;102198.63;4792240;29;120346;-86
2022/04/27 11:41:21;;;;;;;6.78;2.58;;;;;;;17.34;41.45;102212.53;4790774;29;119881;-85
2022/04/27 11:43:48;;;;;;;11.13;2.97;;;;;;;17.38;41.20;102209.63;4798790;29;121863;-85
2022/04/27 11:46:14;;;;;;;9.50;3.20;;;;;;;17.42;42.88;102204.69;4795804;29;119757;-85
2022/04/27 11:48:45;;;;;;;10.88;2.80;;;;;;;17.53;40.93;102213.34;4779715;29;121829;-85
2022/04/27 11:51:11;;;;;;;10.63;3.35;;;;;;;17.55;41.13;102213.63;4786928;29;120013;-86